sensor_id;sensor_type;location;lat;lon;timestamp;P1;durP1;ratioP1;P2;durP2;ratioP2
33094;SDS011;19459;53.044;8.910;2023-02-03T00:01:33;27.13;;;15.32;;
33094;SDS011;19459;53.044;8.910;2023-02-03T00:03:59;31.55;;;14.75;;
33094;SDS011;19459;53.044;8.910;2023-02-03T00:06:25;26.05;;;14.48;;
33094;SDS011;19459;53.044;8.910;2023-02-03T00:08:51;38.88;;;15.77;;
33094;SDS011;19459;53.044;8.910;2023-02-03T00:11:20;33.08;;;15.15;;
33094;SDS011;19459;53.044;8.910;2023-02-03T00:13:45;25.17;;;15.38;;
33094;SDS011;19459;53.044;8.910;2023-02-03T00:16:11;28.17;;;14.38;;
33094;SDS011;19459;53.044;8.910;2023-02-03T00:18:37;21.98;;;12.48;;
33094;SDS011;19459;53.044;8.910;2023-02-03T00:21:03;21.35;;;12.45;;
33094;SDS011;19459;53.044;8.910;2023-02-03T00:23:30;24.98;;;13.32;;
33094;SDS011;19459;53.044;8.910;2023-02-03T00:25:57;21.30;;;11.70;;
33094;SDS011;19459;53.044;8.910;2023-02-03T00:28:32;19.42;;;11.30;;
33094;SDS011;19459;53.044;8.910;2023-02-03T00:30:58;19.08;;;11.00;;
33094;SDS011;19459;53.044;8.910;2023-02-03T00:33:23;20.40;;;11.57;;
33094;SDS011;19459;53.044;8.910;2023-02-03T00:35:49;28.88;;;11.85;;
33094;SDS011;19459;53.044;8.910;2023-02-03T00:38:15;24.88;;;12.30;;
33094;SDS011;19459;53.044;8.910;2023-02-03T00:40:41;25.50;;;12.15;;
33094;SDS011;19459;53.044;8.910;2023-02-03T00:43:08;24.10;;;12.43;;
33094;SDS011;19459;53.044;8.910;2023-02-03T00:45:33;20.83;;;10.63;;
33094;SDS011;19459;53.044;8.910;2023-02-03T00:47:59;17.85;;;12.13;;
33094;SDS011;19459;53.044;8.910;2023-02-03T00:50:25;32.00;;;13.05;;
33094;SDS011;19459;53.044;8.910;2023-02-03T00:52:51;15.73;;;10.35;;
33094;SDS011;19459;53.044;8.910;2023-02-03T00:55:16;26.10;;;11.32;;
33094;SDS011;19459;53.044;8.910;2023-02-03T00:57:42;22.90;;;10.63;;
33094;SDS011;19459;53.044;8.910;2023-02-03T01:00:08;22.02;;;10.90;;
33094;SDS011;19459;53.044;8.910;2023-02-03T01:02:35;19.73;;;10.23;;
33094;SDS011;19459;53.044;8.910;2023-02-03T01:05:01;22.48;;;10.73;;
33094;SDS011;19459;53.044;8.910;2023-02-03T01:07:26;25.58;;;10.50;;
33094;SDS011;19459;53.044;8.910;2023-02-03T01:09:55;22.02;;;10.50;;
33094;SDS011;19459;53.044;8.910;2023-02-03T01:12:21;15.13;;;8.73;;
33094;SDS011;19459;53.044;8.910;2023-02-03T01:14:47;19.60;;;9.23;;
33094;SDS011;19459;53.044;8.910;2023-02-03T01:17:12;24.27;;;9.43;;
33094;SDS011;19459;53.044;8.910;2023-02-03T01:19:38;16.30;;;7.90;;
33094;SDS011;19459;53.044;8.910;2023-02-03T01:22:04;12.70;;;7.90;;
33094;SDS011;19459;53.044;8.910;2023-02-03T01:24:30;25.80;;;10.13;;
33094;SDS011;19459;53.044;8.910;2023-02-03T01:26:55;16.67;;;7.10;;
33094;SDS011;19459;53.044;8.910;2023-02-03T01:29:21;14.93;;;7.25;;
33094;SDS011;19459;53.044;8.910;2023-02-03T01:31:47;20.45;;;6.85;;
33094;SDS011;19459;53.044;8.910;2023-02-03T01:34:13;13.18;;;6.95;;
33094;SDS011;19459;53.044;8.910;2023-02-03T01:36:41;14.60;;;6.35;;
33094;SDS011;19459;53.044;8.910;2023-02-03T01:39:07;14.27;;;6.82;;
33094;SDS011;19459;53.044;8.910;2023-02-03T01:41:34;17.88;;;7.78;;
33094;SDS011;19459;53.044;8.910;2023-02-03T01:44:33;15.82;;;7.28;;
33094;SDS011;19459;53.044;8.910;2023-02-03T01:52:33;14.20;;;6.75;;
33094;SDS011;19459;53.044;8.910;2023-02-03T01:55:01;17.27;;;6.68;;
33094;SDS011;19459;53.044;8.910;2023-02-03T01:57:31;12.68;;;6.78;;
33094;SDS011;19459;53.044;8.910;2023-02-03T02:00:03;15.38;;;5.97;;
33094;SDS011;19459;53.044;8.910;2023-02-03T02:02:33;13.50;;;8.13;;
33094;SDS011;19459;53.044;8.910;2023-02-03T02:07:41;17.40;;;7.90;;
33094;SDS011;19459;53.044;8.910;2023-02-03T02:10:09;23.92;;;8.50;;
33094;SDS011;19459;53.044;8.910;2023-02-03T02:12:35;14.85;;;7.78;;
33094;SDS011;19459;53.044;8.910;2023-02-03T02:15:01;18.52;;;8.25;;
33094;SDS011;19459;53.044;8.910;2023-02-03T02:26:22;21.08;;;7.75;;
33094;SDS011;19459;53.044;8.910;2023-02-03T02:32:10;16.00;;;8.35;;
33094;SDS011;19459;53.044;8.910;2023-02-03T02:43:20;15.25;;;8.05;;
33094;SDS011;19459;53.044;8.910;2023-02-03T02:46:01;15.13;;;6.38;;
33094;SDS011;19459;53.044;8.910;2023-02-03T02:48:51;16.52;;;7.43;;
33094;SDS011;19459;53.044;8.910;2023-02-03T02:51:39;15.02;;;6.47;;
33094;SDS011;19459;53.044;8.910;2023-02-03T02:54:08;15.70;;;6.35;;
33094;SDS011;19459;53.044;8.910;2023-02-03T02:56:40;12.25;;;6.03;;
33094;SDS011;19459;53.044;8.910;2023-02-03T02:59:10;12.55;;;5.78;;
33094;SDS011;19459;53.044;8.910;2023-02-03T03:01:38;15.68;;;6.30;;
33094;SDS011;19459;53.044;8.910;2023-02-03T03:04:05;32.05;;;8.82;;
33094;SDS011;19459;53.044;8.910;2023-02-03T03:06:36;13.93;;;5.68;;
33094;SDS011;19459;53.044;8.910;2023-02-03T03:09:11;10.10;;;5.07;;
33094;SDS011;19459;53.044;8.910;2023-02-03T03:11:44;18.20;;;5.93;;
33094;SDS011;19459;53.044;8.910;2023-02-03T03:14:22;13.40;;;5.35;;
33094;SDS011;19459;53.044;8.910;2023-02-03T03:16:53;12.88;;;7.30;;
33094;SDS011;19459;53.044;8.910;2023-02-03T03:19:42;15.70;;;6.22;;
33094;SDS011;19459;53.044;8.910;2023-02-03T03:24:46;10.05;;;4.47;;
33094;SDS011;19459;53.044;8.910;2023-02-03T03:29:48;14.20;;;4.72;;
33094;SDS011;19459;53.044;8.910;2023-02-03T03:32:36;12.55;;;5.32;;
33094;SDS011;19459;53.044;8.910;2023-02-03T03:35:03;16.80;;;5.95;;
33094;SDS011;19459;53.044;8.910;2023-02-03T03:37:43;9.38;;;5.05;;
33094;SDS011;19459;53.044;8.910;2023-02-03T03:40:42;19.00;;;6.72;;
33094;SDS011;19459;53.044;8.910;2023-02-03T03:43:14;11.82;;;4.75;;
33094;SDS011;19459;53.044;8.910;2023-02-03T03:48:26;13.52;;;6.70;;
33094;SDS011;19459;53.044;8.910;2023-02-03T03:51:06;16.05;;;5.60;;
33094;SDS011;19459;53.044;8.910;2023-02-03T03:53:37;16.65;;;5.43;;
33094;SDS011;19459;53.044;8.910;2023-02-03T03:56:08;19.35;;;5.43;;
33094;SDS011;19459;53.044;8.910;2023-02-03T03:58:42;11.82;;;6.05;;
33094;SDS011;19459;53.044;8.910;2023-02-03T04:01:10;17.17;;;6.07;;
33094;SDS011;19459;53.044;8.910;2023-02-03T04:03:43;12.48;;;5.25;;
33094;SDS011;19459;53.044;8.910;2023-02-03T04:06:13;13.52;;;5.07;;
33094;SDS011;19459;53.044;8.910;2023-02-03T04:08:39;18.15;;;5.25;;
33094;SDS011;19459;53.044;8.910;2023-02-03T04:11:05;16.80;;;5.55;;
33094;SDS011;19459;53.044;8.910;2023-02-03T04:13:32;15.65;;;5.70;;
33094;SDS011;19459;53.044;8.910;2023-02-03T04:15:57;9.65;;;5.47;;
33094;SDS011;19459;53.044;8.910;2023-02-03T04:18:23;15.07;;;5.75;;
33094;SDS011;19459;53.044;8.910;2023-02-03T04:20:49;8.23;;;5.40;;
33094;SDS011;19459;53.044;8.910;2023-02-03T04:23:15;16.02;;;6.30;;
33094;SDS011;19459;53.044;8.910;2023-02-03T04:25:41;12.80;;;6.25;;
33094;SDS011;19459;53.044;8.910;2023-02-03T04:28:07;14.90;;;6.43;;
33094;SDS011;19459;53.044;8.910;2023-02-03T04:30:33;18.73;;;7.38;;
33094;SDS011;19459;53.044;8.910;2023-02-03T04:32:59;19.15;;;7.10;;
33094;SDS011;19459;53.044;8.910;2023-02-03T04:35:25;15.30;;;6.45;;
33094;SDS011;19459;53.044;8.910;2023-02-03T04:37:51;21.05;;;7.03;;
33094;SDS011;19459;53.044;8.910;2023-02-03T04:40:17;13.77;;;6.45;;
33094;SDS011;19459;53.044;8.910;2023-02-03T04:42:43;15.77;;;6.93;;
33094;SDS011;19459;53.044;8.910;2023-02-03T04:45:09;21.98;;;7.97;;
33094;SDS011;19459;53.044;8.910;2023-02-03T04:47:36;20.45;;;7.82;;
33094;SDS011;19459;53.044;8.910;2023-02-03T04:50:03;14.52;;;7.45;;
33094;SDS011;19459;53.044;8.910;2023-02-03T04:52:30;18.50;;;6.57;;
33094;SDS011;19459;53.044;8.910;2023-02-03T04:54:55;16.42;;;6.72;;
33094;SDS011;19459;53.044;8.910;2023-02-03T04:57:21;9.43;;;5.63;;
33094;SDS011;19459;53.044;8.910;2023-02-03T04:59:47;18.08;;;6.32;;
33094;SDS011;19459;53.044;8.910;2023-02-03T05:02:13;21.30;;;7.72;;
33094;SDS011;19459;53.044;8.910;2023-02-03T05:04:39;18.20;;;7.00;;
33094;SDS011;19459;53.044;8.910;2023-02-03T05:07:04;15.95;;;6.32;;
33094;SDS011;19459;53.044;8.910;2023-02-03T05:09:30;14.93;;;6.10;;
33094;SDS011;19459;53.044;8.910;2023-02-03T05:11:56;13.65;;;5.53;;
33094;SDS011;19459;53.044;8.910;2023-02-03T05:14:22;15.38;;;5.78;;
33094;SDS011;19459;53.044;8.910;2023-02-03T05:16:47;14.20;;;5.47;;
33094;SDS011;19459;53.044;8.910;2023-02-03T05:19:13;13.98;;;6.30;;
33094;SDS011;19459;53.044;8.910;2023-02-03T05:21:39;16.08;;;6.20;;
33094;SDS011;19459;53.044;8.910;2023-02-03T05:24:05;12.85;;;5.22;;
33094;SDS011;19459;53.044;8.910;2023-02-03T05:26:32;14.85;;;5.88;;
33094;SDS011;19459;53.044;8.910;2023-02-03T05:28:58;16.60;;;5.47;;
33094;SDS011;19459;53.044;8.910;2023-02-03T05:31:25;22.50;;;6.43;;
33094;SDS011;19459;53.044;8.910;2023-02-03T05:33:51;19.27;;;5.38;;
33094;SDS011;19459;53.044;8.910;2023-02-03T05:36:16;14.70;;;6.28;;
33094;SDS011;19459;53.044;8.910;2023-02-03T05:38:42;23.25;;;6.40;;
33094;SDS011;19459;53.044;8.910;2023-02-03T05:41:08;25.95;;;5.05;;
33094;SDS011;19459;53.044;8.910;2023-02-03T05:43:55;16.13;;;6.05;;
33094;SDS011;19459;53.044;8.910;2023-02-03T05:46:21;29.55;;;7.43;;
33094;SDS011;19459;53.044;8.910;2023-02-03T05:48:46;23.90;;;7.45;;
33094;SDS011;19459;53.044;8.910;2023-02-03T05:51:12;16.50;;;6.10;;
33094;SDS011;19459;53.044;8.910;2023-02-03T05:53:38;26.02;;;7.28;;
33094;SDS011;19459;53.044;8.910;2023-02-03T05:56:04;24.17;;;6.90;;
33094;SDS011;19459;53.044;8.910;2023-02-03T05:58:30;16.83;;;6.60;;
33094;SDS011;19459;53.044;8.910;2023-02-03T06:00:56;20.45;;;5.72;;
33094;SDS011;19459;53.044;8.910;2023-02-03T06:03:21;26.95;;;7.15;;
33094;SDS011;19459;53.044;8.910;2023-02-03T06:05:47;17.63;;;6.85;;
33094;SDS011;19459;53.044;8.910;2023-02-03T06:08:13;18.85;;;6.50;;
33094;SDS011;19459;53.044;8.910;2023-02-03T06:10:39;19.15;;;7.20;;
33094;SDS011;19459;53.044;8.910;2023-02-03T06:13:13;14.95;;;5.97;;
33094;SDS011;19459;53.044;8.910;2023-02-03T06:15:40;20.75;;;7.00;;
33094;SDS011;19459;53.044;8.910;2023-02-03T06:18:07;16.92;;;6.95;;
33094;SDS011;19459;53.044;8.910;2023-02-03T06:20:33;18.38;;;6.65;;
33094;SDS011;19459;53.044;8.910;2023-02-03T06:22:59;23.05;;;7.05;;
33094;SDS011;19459;53.044;8.910;2023-02-03T06:25:25;20.85;;;7.95;;
33094;SDS011;19459;53.044;8.910;2023-02-03T06:27:51;24.10;;;9.60;;
33094;SDS011;19459;53.044;8.910;2023-02-03T06:30:17;15.95;;;7.95;;
33094;SDS011;19459;53.044;8.910;2023-02-03T06:32:44;15.23;;;6.88;;
33094;SDS011;19459;53.044;8.910;2023-02-03T06:35:10;17.70;;;7.07;;
33094;SDS011;19459;53.044;8.910;2023-02-03T06:37:36;19.75;;;7.60;;
33094;SDS011;19459;53.044;8.910;2023-02-03T06:40:02;16.95;;;7.60;;
33094;SDS011;19459;53.044;8.910;2023-02-03T06:42:29;23.33;;;9.32;;
33094;SDS011;19459;53.044;8.910;2023-02-03T06:44:55;26.27;;;8.32;;
33094;SDS011;19459;53.044;8.910;2023-02-03T06:47:20;16.92;;;8.25;;
33094;SDS011;19459;53.044;8.910;2023-02-03T06:49:46;18.10;;;7.32;;
33094;SDS011;19459;53.044;8.910;2023-02-03T06:52:12;16.75;;;7.47;;
33094;SDS011;19459;53.044;8.910;2023-02-03T06:54:39;21.58;;;7.70;;
33094;SDS011;19459;53.044;8.910;2023-02-03T06:57:05;24.95;;;6.78;;
33094;SDS011;19459;53.044;8.910;2023-02-03T06:59:31;14.15;;;7.20;;
33094;SDS011;19459;53.044;8.910;2023-02-03T07:01:57;21.25;;;6.78;;
33094;SDS011;19459;53.044;8.910;2023-02-03T07:04:22;17.77;;;6.03;;
33094;SDS011;19459;53.044;8.910;2023-02-03T07:06:48;22.60;;;5.50;;
33094;SDS011;19459;53.044;8.910;2023-02-03T07:09:14;13.27;;;6.15;;
33094;SDS011;19459;53.044;8.910;2023-02-03T07:11:40;15.60;;;5.50;;
33094;SDS011;19459;53.044;8.910;2023-02-03T07:14:06;21.27;;;5.28;;
33094;SDS011;19459;53.044;8.910;2023-02-03T07:16:32;18.15;;;5.05;;
33094;SDS011;19459;53.044;8.910;2023-02-03T07:18:58;18.55;;;5.25;;
33094;SDS011;19459;53.044;8.910;2023-02-03T07:21:24;18.67;;;5.63;;
33094;SDS011;19459;53.044;8.910;2023-02-03T07:23:50;13.95;;;4.82;;
33094;SDS011;19459;53.044;8.910;2023-02-03T07:26:16;21.92;;;5.03;;
33094;SDS011;19459;53.044;8.910;2023-02-03T07:28:42;14.68;;;4.43;;
33094;SDS011;19459;53.044;8.910;2023-02-03T07:31:08;16.05;;;4.55;;
33094;SDS011;19459;53.044;8.910;2023-02-03T07:33:35;15.30;;;5.20;;
33094;SDS011;19459;53.044;8.910;2023-02-03T07:36:01;22.48;;;6.63;;
33094;SDS011;19459;53.044;8.910;2023-02-03T07:38:28;14.75;;;4.50;;
33094;SDS011;19459;53.044;8.910;2023-02-03T07:40:54;12.55;;;3.70;;
33094;SDS011;19459;53.044;8.910;2023-02-03T07:43:20;14.80;;;5.35;;
33094;SDS011;19459;53.044;8.910;2023-02-03T07:45:47;16.25;;;4.88;;
33094;SDS011;19459;53.044;8.910;2023-02-03T07:48:14;17.60;;;4.30;;
33094;SDS011;19459;53.044;8.910;2023-02-03T07:50:42;17.60;;;4.15;;
33094;SDS011;19459;53.044;8.910;2023-02-03T07:53:10;16.02;;;3.92;;
33094;SDS011;19459;53.044;8.910;2023-02-03T07:55:36;15.52;;;3.80;;
33094;SDS011;19459;53.044;8.910;2023-02-03T07:58:03;23.20;;;4.63;;
33094;SDS011;19459;53.044;8.910;2023-02-03T08:00:29;15.95;;;4.45;;
33094;SDS011;19459;53.044;8.910;2023-02-03T08:02:55;20.73;;;3.60;;
33094;SDS011;19459;53.044;8.910;2023-02-03T08:05:20;15.82;;;3.63;;
33094;SDS011;19459;53.044;8.910;2023-02-03T08:07:46;9.63;;;4.03;;
33094;SDS011;19459;53.044;8.910;2023-02-03T08:10:12;10.15;;;3.03;;
33094;SDS011;19459;53.044;8.910;2023-02-03T08:12:39;16.33;;;3.80;;
33094;SDS011;19459;53.044;8.910;2023-02-03T08:15:10;14.30;;;4.65;;
33094;SDS011;19459;53.044;8.910;2023-02-03T08:17:37;25.90;;;4.80;;
33094;SDS011;19459;53.044;8.910;2023-02-03T08:20:09;19.35;;;4.15;;
33094;SDS011;19459;53.044;8.910;2023-02-03T08:22:35;21.10;;;5.28;;
33094;SDS011;19459;53.044;8.910;2023-02-03T08:25:01;14.55;;;4.72;;
33094;SDS011;19459;53.044;8.910;2023-02-03T08:27:28;14.07;;;4.05;;
33094;SDS011;19459;53.044;8.910;2023-02-03T08:29:55;22.20;;;4.78;;
33094;SDS011;19459;53.044;8.910;2023-02-03T08:32:21;19.42;;;4.63;;
33094;SDS011;19459;53.044;8.910;2023-02-03T08:34:47;26.20;;;5.40;;
33094;SDS011;19459;53.044;8.910;2023-02-03T08:37:15;12.90;;;4.07;;
33094;SDS011;19459;53.044;8.910;2023-02-03T08:39:44;17.08;;;3.95;;
33094;SDS011;19459;53.044;8.910;2023-02-03T08:42:09;22.20;;;5.00;;
33094;SDS011;19459;53.044;8.910;2023-02-03T08:44:35;19.02;;;4.60;;
33094;SDS011;19459;53.044;8.910;2023-02-03T08:47:03;15.38;;;3.80;;
33094;SDS011;19459;53.044;8.910;2023-02-03T08:49:30;23.30;;;4.57;;
33094;SDS011;19459;53.044;8.910;2023-02-03T08:51:56;25.52;;;4.78;;
33094;SDS011;19459;53.044;8.910;2023-02-03T08:54:23;24.13;;;4.32;;
33094;SDS011;19459;53.044;8.910;2023-02-03T08:56:50;23.27;;;4.40;;
33094;SDS011;19459;53.044;8.910;2023-02-03T08:59:16;17.13;;;4.07;;
33094;SDS011;19459;53.044;8.910;2023-02-03T09:01:42;19.98;;;3.92;;
33094;SDS011;19459;53.044;8.910;2023-02-03T09:04:10;40.60;;;6.13;;
33094;SDS011;19459;53.044;8.910;2023-02-03T09:06:36;33.72;;;4.95;;
33094;SDS011;19459;53.044;8.910;2023-02-03T09:09:03;27.00;;;4.32;;
33094;SDS011;19459;53.044;8.910;2023-02-03T09:11:29;25.17;;;5.38;;
33094;SDS011;19459;53.044;8.910;2023-02-03T09:13:54;30.10;;;6.57;;
33094;SDS011;19459;53.044;8.910;2023-02-03T09:16:22;23.42;;;3.92;;
33094;SDS011;19459;53.044;8.910;2023-02-03T09:18:51;19.48;;;4.07;;
33094;SDS011;19459;53.044;8.910;2023-02-03T09:21:19;25.15;;;5.05;;
33094;SDS011;19459;53.044;8.910;2023-02-03T09:23:45;22.15;;;4.00;;
33094;SDS011;19459;53.044;8.910;2023-02-03T09:26:11;14.50;;;4.75;;
33094;SDS011;19459;53.044;8.910;2023-02-03T09:28:39;24.63;;;3.17;;
33094;SDS011;19459;53.044;8.910;2023-02-03T09:31:09;29.13;;;4.60;;
33094;SDS011;19459;53.044;8.910;2023-02-03T09:33:38;26.60;;;5.15;;
33094;SDS011;19459;53.044;8.910;2023-02-03T09:36:04;24.40;;;3.83;;
33094;SDS011;19459;53.044;8.910;2023-02-03T09:38:31;34.08;;;5.10;;
33094;SDS011;19459;53.044;8.910;2023-02-03T09:41:03;20.75;;;5.03;;
33094;SDS011;19459;53.044;8.910;2023-02-03T09:43:42;17.95;;;3.92;;
33094;SDS011;19459;53.044;8.910;2023-02-03T09:46:25;33.17;;;5.72;;
33094;SDS011;19459;53.044;8.910;2023-02-03T09:49:37;29.40;;;6.13;;
33094;SDS011;19459;53.044;8.910;2023-02-03T09:52:16;25.92;;;5.30;;
33094;SDS011;19459;53.044;8.910;2023-02-03T09:57:51;26.35;;;5.10;;
33094;SDS011;19459;53.044;8.910;2023-02-03T10:00:52;19.35;;;4.90;;
33094;SDS011;19459;53.044;8.910;2023-02-03T10:03:32;23.00;;;4.60;;
33094;SDS011;19459;53.044;8.910;2023-02-03T10:14:33;31.10;;;6.03;;
33094;SDS011;19459;53.044;8.910;2023-02-03T10:22:34;34.95;;;7.10;;
33094;SDS011;19459;53.044;8.910;2023-02-03T10:25:13;31.98;;;6.25;;
33094;SDS011;19459;53.044;8.910;2023-02-03T10:27:52;42.60;;;7.38;;
33094;SDS011;19459;53.044;8.910;2023-02-03T10:30:24;29.38;;;7.22;;
33094;SDS011;19459;53.044;8.910;2023-02-03T10:33:08;33.17;;;6.03;;
33094;SDS011;19459;53.044;8.910;2023-02-03T10:35:46;36.38;;;6.85;;
33094;SDS011;19459;53.044;8.910;2023-02-03T10:38:23;40.38;;;7.93;;
33094;SDS011;19459;53.044;8.910;2023-02-03T10:41:05;39.08;;;7.18;;
33094;SDS011;19459;53.044;8.910;2023-02-03T10:43:31;30.73;;;6.70;;
33094;SDS011;19459;53.044;8.910;2023-02-03T10:46:29;40.15;;;6.75;;
33094;SDS011;19459;53.044;8.910;2023-02-03T10:49:00;40.30;;;6.70;;
33094;SDS011;19459;53.044;8.910;2023-02-03T10:51:27;30.45;;;6.75;;
33094;SDS011;19459;53.044;8.910;2023-02-03T10:54:34;25.40;;;6.57;;
33094;SDS011;19459;53.044;8.910;2023-02-03T10:57:05;34.72;;;8.07;;
33094;SDS011;19459;53.044;8.910;2023-02-03T10:59:40;36.90;;;6.50;;
33094;SDS011;19459;53.044;8.910;2023-02-03T11:07:41;42.42;;;7.18;;
33094;SDS011;19459;53.044;8.910;2023-02-03T11:26:31;30.52;;;5.95;;
33094;SDS011;19459;53.044;8.910;2023-02-03T11:29:02;35.90;;;8.82;;
33094;SDS011;19459;53.044;8.910;2023-02-03T11:31:31;40.33;;;6.38;;
33094;SDS011;19459;53.044;8.910;2023-02-03T11:34:01;30.95;;;5.85;;
33094;SDS011;19459;53.044;8.910;2023-02-03T11:36:31;38.22;;;7.05;;
33094;SDS011;19459;53.044;8.910;2023-02-03T11:41:45;42.45;;;7.70;;
33094;SDS011;19459;53.044;8.910;2023-02-03T11:44:16;44.42;;;7.03;;
33094;SDS011;19459;53.044;8.910;2023-02-03T11:46:43;46.80;;;8.05;;
33094;SDS011;19459;53.044;8.910;2023-02-03T11:52:30;34.28;;;6.53;;
33094;SDS011;19459;53.044;8.910;2023-02-03T11:55:20;36.78;;;7.50;;
33094;SDS011;19459;53.044;8.910;2023-02-03T12:04:40;40.88;;;8.45;;
33094;SDS011;19459;53.044;8.910;2023-02-03T12:13:21;33.13;;;6.57;;
33094;SDS011;19459;53.044;8.910;2023-02-03T12:29:03;34.00;;;6.50;;
33094;SDS011;19459;53.044;8.910;2023-02-03T12:31:44;43.10;;;6.55;;
33094;SDS011;19459;53.044;8.910;2023-02-03T12:34:30;33.75;;;6.95;;
33094;SDS011;19459;53.044;8.910;2023-02-03T12:39:39;50.40;;;9.00;;
33094;SDS011;19459;53.044;8.910;2023-02-03T12:42:19;29.83;;;6.03;;
33094;SDS011;19459;53.044;8.910;2023-02-03T12:45:03;32.35;;;6.20;;
33094;SDS011;19459;53.044;8.910;2023-02-03T12:48:12;30.40;;;5.40;;
33094;SDS011;19459;53.044;8.910;2023-02-03T12:50:44;29.23;;;6.43;;
33094;SDS011;19459;53.044;8.910;2023-02-03T12:53:34;30.30;;;6.60;;
33094;SDS011;19459;53.044;8.910;2023-02-03T12:56:09;27.98;;;7.88;;
33094;SDS011;19459;53.044;8.910;2023-02-03T12:58:40;31.95;;;6.90;;
33094;SDS011;19459;53.044;8.910;2023-02-03T13:04:29;42.88;;;7.57;;
33094;SDS011;19459;53.044;8.910;2023-02-03T13:09:58;33.08;;;6.03;;
33094;SDS011;19459;53.044;8.910;2023-02-03T13:12:56;31.13;;;6.20;;
33094;SDS011;19459;53.044;8.910;2023-02-03T13:15:27;30.58;;;5.30;;
33094;SDS011;19459;53.044;8.910;2023-02-03T13:21:03;34.10;;;6.72;;
33094;SDS011;19459;53.044;8.910;2023-02-03T13:23:29;28.38;;;5.10;;
33094;SDS011;19459;53.044;8.910;2023-02-03T13:37:15;28.13;;;4.72;;
33094;SDS011;19459;53.044;8.910;2023-02-03T13:43:10;29.67;;;7.65;;
33094;SDS011;19459;53.044;8.910;2023-02-03T13:45:44;36.17;;;6.35;;
33094;SDS011;19459;53.044;8.910;2023-02-03T13:48:19;31.38;;;5.68;;
33094;SDS011;19459;53.044;8.910;2023-02-03T13:53:57;41.88;;;6.75;;
33094;SDS011;19459;53.044;8.910;2023-02-03T13:56:29;29.02;;;6.90;;
33094;SDS011;19459;53.044;8.910;2023-02-03T14:16:35;44.83;;;7.18;;
33094;SDS011;19459;53.044;8.910;2023-02-03T14:24:40;33.10;;;7.20;;
33094;SDS011;19459;53.044;8.910;2023-02-03T14:27:28;50.80;;;7.22;;
33094;SDS011;19459;53.044;8.910;2023-02-03T14:32:47;41.15;;;6.13;;
33094;SDS011;19459;53.044;8.910;2023-02-03T14:35:36;34.55;;;6.03;;
33094;SDS011;19459;53.044;8.910;2023-02-03T14:38:10;27.15;;;5.63;;
33094;SDS011;19459;53.044;8.910;2023-02-03T14:40:58;29.70;;;5.85;;
33094;SDS011;19459;53.044;8.910;2023-02-03T14:50:00;29.15;;;5.28;;
33094;SDS011;19459;53.044;8.910;2023-02-03T14:55:58;34.03;;;6.65;;
33094;SDS011;19459;53.044;8.910;2023-02-03T15:01:22;35.65;;;5.85;;
33094;SDS011;19459;53.044;8.910;2023-02-03T15:06:51;28.48;;;7.45;;
33094;SDS011;19459;53.044;8.910;2023-02-03T15:09:26;34.72;;;6.20;;
33094;SDS011;19459;53.044;8.910;2023-02-03T15:12:16;37.42;;;7.50;;
33094;SDS011;19459;53.044;8.910;2023-02-03T15:14:44;29.45;;;7.47;;
33094;SDS011;19459;53.044;8.910;2023-02-03T15:17:11;32.28;;;7.07;;
33094;SDS011;19459;53.044;8.910;2023-02-03T15:19:52;31.27;;;7.25;;
33094;SDS011;19459;53.044;8.910;2023-02-03T15:22:28;29.60;;;8.77;;
33094;SDS011;19459;53.044;8.910;2023-02-03T15:24:55;39.83;;;8.05;;
33094;SDS011;19459;53.044;8.910;2023-02-03T15:27:25;40.42;;;10.55;;
33094;SDS011;19459;53.044;8.910;2023-02-03T15:29:54;35.60;;;8.50;;
33094;SDS011;19459;53.044;8.910;2023-02-03T15:35:05;37.70;;;5.85;;
33094;SDS011;19459;53.044;8.910;2023-02-03T15:37:59;30.40;;;7.32;;
33094;SDS011;19459;53.044;8.910;2023-02-03T15:40:32;36.10;;;7.68;;
33094;SDS011;19459;53.044;8.910;2023-02-03T15:43:06;43.72;;;9.23;;
33094;SDS011;19459;53.044;8.910;2023-02-03T15:49:02;32.05;;;7.85;;
33094;SDS011;19459;53.044;8.910;2023-02-03T15:56:54;36.90;;;9.30;;
33094;SDS011;19459;53.044;8.910;2023-02-03T16:02:05;40.45;;;7.47;;
33094;SDS011;19459;53.044;8.910;2023-02-03T16:04:54;37.60;;;7.07;;
33094;SDS011;19459;53.044;8.910;2023-02-03T16:07:21;29.17;;;6.68;;
33094;SDS011;19459;53.044;8.910;2023-02-03T16:09:52;33.28;;;9.15;;
33094;SDS011;19459;53.044;8.910;2023-02-03T16:12:24;38.30;;;6.05;;
33094;SDS011;19459;53.044;8.910;2023-02-03T16:14:55;55.47;;;15.68;;
33094;SDS011;19459;53.044;8.910;2023-02-03T16:20:19;30.67;;;7.60;;
33094;SDS011;19459;53.044;8.910;2023-02-03T16:22:59;33.97;;;6.70;;
33094;SDS011;19459;53.044;8.910;2023-02-03T16:28:40;44.58;;;7.50;;
33094;SDS011;19459;53.044;8.910;2023-02-03T16:31:25;48.70;;;7.53;;
33094;SDS011;19459;53.044;8.910;2023-02-03T16:34:14;40.28;;;8.38;;
33094;SDS011;19459;53.044;8.910;2023-02-03T16:37:01;41.53;;;7.85;;
33094;SDS011;19459;53.044;8.910;2023-02-03T16:40:07;43.55;;;8.95;;
33094;SDS011;19459;53.044;8.910;2023-02-03T16:42:52;38.33;;;7.13;;
33094;SDS011;19459;53.044;8.910;2023-02-03T16:45:36;37.30;;;6.95;;
33094;SDS011;19459;53.044;8.910;2023-02-03T16:48:21;42.70;;;9.38;;
33094;SDS011;19459;53.044;8.910;2023-02-03T16:51:09;43.95;;;10.18;;
33094;SDS011;19459;53.044;8.910;2023-02-03T16:53:41;39.67;;;7.35;;
33094;SDS011;19459;53.044;8.910;2023-02-03T16:56:09;30.67;;;6.35;;
33094;SDS011;19459;53.044;8.910;2023-02-03T16:58:37;37.90;;;7.25;;
33094;SDS011;19459;53.044;8.910;2023-02-03T17:01:03;42.60;;;7.82;;
33094;SDS011;19459;53.044;8.910;2023-02-03T17:03:33;40.42;;;9.43;;
33094;SDS011;19459;53.044;8.910;2023-02-03T17:06:01;38.00;;;6.85;;
33094;SDS011;19459;53.044;8.910;2023-02-03T17:08:31;39.22;;;8.30;;
33094;SDS011;19459;53.044;8.910;2023-02-03T17:11:03;39.72;;;7.75;;
33094;SDS011;19459;53.044;8.910;2023-02-03T17:13:32;39.15;;;8.38;;
33094;SDS011;19459;53.044;8.910;2023-02-03T17:15:59;42.63;;;7.13;;
33094;SDS011;19459;53.044;8.910;2023-02-03T17:18:24;42.75;;;8.25;;
33094;SDS011;19459;53.044;8.910;2023-02-03T17:20:51;33.38;;;8.02;;
33094;SDS011;19459;53.044;8.910;2023-02-03T17:23:17;43.50;;;8.43;;
33094;SDS011;19459;53.044;8.910;2023-02-03T17:25:44;52.55;;;12.32;;
33094;SDS011;19459;53.044;8.910;2023-02-03T17:28:11;50.30;;;10.63;;
33094;SDS011;19459;53.044;8.910;2023-02-03T17:30:38;44.90;;;8.55;;
33094;SDS011;19459;53.044;8.910;2023-02-03T17:33:05;47.58;;;12.75;;
33094;SDS011;19459;53.044;8.910;2023-02-03T17:35:45;67.55;;;17.63;;
33094;SDS011;19459;53.044;8.910;2023-02-03T17:38:11;54.78;;;13.60;;
33094;SDS011;19459;53.044;8.910;2023-02-03T17:40:41;60.72;;;16.05;;
33094;SDS011;19459;53.044;8.910;2023-02-03T17:43:07;57.75;;;14.38;;
33094;SDS011;19459;53.044;8.910;2023-02-03T17:45:37;55.30;;;10.30;;
33094;SDS011;19459;53.044;8.910;2023-02-03T17:48:04;59.60;;;12.82;;
33094;SDS011;19459;53.044;8.910;2023-02-03T17:50:30;34.85;;;9.30;;
33094;SDS011;19459;53.044;8.910;2023-02-03T17:52:56;41.67;;;10.63;;
33094;SDS011;19459;53.044;8.910;2023-02-03T17:55:22;37.30;;;9.43;;
33094;SDS011;19459;53.044;8.910;2023-02-03T17:57:47;52.55;;;8.95;;
33094;SDS011;19459;53.044;8.910;2023-02-03T18:00:13;43.33;;;8.60;;
33094;SDS011;19459;53.044;8.910;2023-02-03T18:02:39;30.63;;;7.43;;
33094;SDS011;19459;53.044;8.910;2023-02-03T18:05:07;45.22;;;8.25;;
33094;SDS011;19459;53.044;8.910;2023-02-03T18:07:32;45.40;;;9.27;;
33094;SDS011;19459;53.044;8.910;2023-02-03T18:09:58;50.72;;;9.77;;
33094;SDS011;19459;53.044;8.910;2023-02-03T18:12:24;44.08;;;8.27;;